sensor_id;sensor_type;location;lat;lon;timestamp;P1;durP1;ratioP1;P2;durP2;ratioP2
14169;SDS011;63889;50.596;8.690;2023-05-02T00:00:32;7.50;;;4.70;;
14169;SDS011;63889;50.596;8.690;2023-05-02T00:03:00;10.05;;;4.55;;
14169;SDS011;63889;50.596;8.690;2023-05-02T00:05:26;7.03;;;4.40;;
14169;SDS011;63889;50.596;8.690;2023-05-02T00:07:51;7.57;;;4.63;;
14169;SDS011;63889;50.596;8.690;2023-05-02T00:10:17;5.75;;;4.35;;
14169;SDS011;63889;50.596;8.690;2023-05-02T00:12:43;8.63;;;4.57;;
14169;SDS011;63889;50.596;8.690;2023-05-02T00:15:09;8.35;;;5.03;;
14169;SDS011;63889;50.596;8.690;2023-05-02T00:17:35;9.02;;;4.63;;
14169;SDS011;63889;50.596;8.690;2023-05-02T00:20:00;5.95;;;4.35;;
14169;SDS011;63889;50.596;8.690;2023-05-02T00:22:28;4.88;;;3.83;;
14169;SDS011;63889;50.596;8.690;2023-05-02T00:24:57;7.93;;;5.20;;
14169;SDS011;63889;50.596;8.690;2023-05-02T00:27:23;7.72;;;4.78;;
14169;SDS011;63889;50.596;8.690;2023-05-02T00:29:49;7.63;;;5.38;;
14169;SDS011;63889;50.596;8.690;2023-05-02T00:32:16;7.55;;;5.03;;
14169;SDS011;63889;50.596;8.690;2023-05-02T00:34:42;7.88;;;5.20;;
14169;SDS011;63889;50.596;8.690;2023-05-02T00:37:07;8.68;;;4.80;;
14169;SDS011;63889;50.596;8.690;2023-05-02T00:39:33;6.93;;;4.57;;
14169;SDS011;63889;50.596;8.690;2023-05-02T00:41:59;8.48;;;4.93;;
14169;SDS011;63889;50.596;8.690;2023-05-02T00:44:25;9.38;;;5.28;;
14169;SDS011;63889;50.596;8.690;2023-05-02T00:46:52;10.50;;;5.25;;
14169;SDS011;63889;50.596;8.690;2023-05-02T00:49:18;7.57;;;4.85;;
14169;SDS011;63889;50.596;8.690;2023-05-02T00:51:44;7.60;;;5.28;;
14169;SDS011;63889;50.596;8.690;2023-05-02T00:54:10;9.35;;;5.53;;
14169;SDS011;63889;50.596;8.690;2023-05-02T00:56:39;9.48;;;5.70;;
14169;SDS011;63889;50.596;8.690;2023-05-02T00:59:06;9.50;;;5.70;;
14169;SDS011;63889;50.596;8.690;2023-05-02T01:10:22;12.07;;;7.07;;
14169;SDS011;63889;50.596;8.690;2023-05-02T01:13:04;9.93;;;6.40;;
14169;SDS011;63889;50.596;8.690;2023-05-02T01:15:34;11.57;;;6.15;;
14169;SDS011;63889;50.596;8.690;2023-05-02T01:18:02;10.88;;;6.57;;
14169;SDS011;63889;50.596;8.690;2023-05-02T01:20:29;11.48;;;6.40;;
14169;SDS011;63889;50.596;8.690;2023-05-02T01:22:57;10.25;;;6.45;;
14169;SDS011;63889;50.596;8.690;2023-05-02T01:31:00;10.38;;;6.65;;
14169;SDS011;63889;50.596;8.690;2023-05-02T01:33:28;7.75;;;6.35;;
14169;SDS011;63889;50.596;8.690;2023-05-02T01:35:55;10.98;;;6.80;;
14169;SDS011;63889;50.596;8.690;2023-05-02T01:38:23;11.35;;;7.47;;
14169;SDS011;63889;50.596;8.690;2023-05-02T01:40:50;9.77;;;6.55;;
14169;SDS011;63889;50.596;8.690;2023-05-02T01:43:18;9.45;;;6.47;;
14169;SDS011;63889;50.596;8.690;2023-05-02T01:45:46;12.73;;;6.75;;
14169;SDS011;63889;50.596;8.690;2023-05-02T01:48:14;10.68;;;6.68;;
14169;SDS011;63889;50.596;8.690;2023-05-02T01:50:42;11.50;;;6.70;;
14169;SDS011;63889;50.596;8.690;2023-05-02T01:53:09;12.88;;;6.40;;
14169;SDS011;63889;50.596;8.690;2023-05-02T01:55:37;13.32;;;7.75;;
14169;SDS011;63889;50.596;8.690;2023-05-02T01:58:07;14.05;;;7.15;;
14169;SDS011;63889;50.596;8.690;2023-05-02T02:00:34;11.68;;;6.97;;
14169;SDS011;63889;50.596;8.690;2023-05-02T02:03:01;11.85;;;7.15;;
14169;SDS011;63889;50.596;8.690;2023-05-02T02:05:29;11.77;;;7.38;;
14169;SDS011;63889;50.596;8.690;2023-05-02T02:07:55;10.77;;;6.78;;
14169;SDS011;63889;50.596;8.690;2023-05-02T02:10:22;13.52;;;8.10;;
14169;SDS011;63889;50.596;8.690;2023-05-02T02:12:54;12.07;;;7.40;;
14169;SDS011;63889;50.596;8.690;2023-05-02T02:15:28;12.73;;;7.60;;
14169;SDS011;63889;50.596;8.690;2023-05-02T02:17:59;14.55;;;7.70;;
14169;SDS011;63889;50.596;8.690;2023-05-02T02:20:28;10.45;;;6.82;;
14169;SDS011;63889;50.596;8.690;2023-05-02T02:22:54;14.98;;;8.25;;
14169;SDS011;63889;50.596;8.690;2023-05-02T02:25:21;11.75;;;7.93;;
14169;SDS011;63889;50.596;8.690;2023-05-02T02:27:48;11.73;;;7.95;;
14169;SDS011;63889;50.596;8.690;2023-05-02T02:30:14;12.20;;;8.40;;
14169;SDS011;63889;50.596;8.690;2023-05-02T02:32:40;14.15;;;8.60;;
14169;SDS011;63889;50.596;8.690;2023-05-02T02:35:06;11.95;;;8.02;;
14169;SDS011;63889;50.596;8.690;2023-05-02T02:37:37;11.85;;;7.55;;
14169;SDS011;63889;50.596;8.690;2023-05-02T02:40:21;14.52;;;8.48;;
14169;SDS011;63889;50.596;8.690;2023-05-02T02:46:19;13.07;;;8.10;;
14169;SDS011;63889;50.596;8.690;2023-05-02T02:48:42;16.55;;;9.30;;
14169;SDS011;63889;50.596;8.690;2023-05-02T02:51:27;14.25;;;8.80;;
14169;SDS011;63889;50.596;8.690;2023-05-02T02:56:49;14.15;;;9.32;;
14169;SDS011;63889;50.596;8.690;2023-05-02T02:59:34;16.45;;;8.85;;
14169;SDS011;63889;50.596;8.690;2023-05-02T03:04:32;19.27;;;9.55;;
14169;SDS011;63889;50.596;8.690;2023-05-02T03:07:00;16.42;;;9.23;;
14169;SDS011;63889;50.596;8.690;2023-05-02T03:09:26;17.60;;;9.82;;
14169;SDS011;63889;50.596;8.690;2023-05-02T03:11:54;17.70;;;9.43;;
14169;SDS011;63889;50.596;8.690;2023-05-02T03:14:21;19.52;;;10.20;;
14169;SDS011;63889;50.596;8.690;2023-05-02T03:16:46;21.67;;;9.70;;
14169;SDS011;63889;50.596;8.690;2023-05-02T03:19:12;17.90;;;9.35;;
14169;SDS011;63889;50.596;8.690;2023-05-02T03:21:38;18.60;;;9.82;;
14169;SDS011;63889;50.596;8.690;2023-05-02T03:24:03;17.95;;;9.95;;
14169;SDS011;63889;50.596;8.690;2023-05-02T03:26:29;16.45;;;9.65;;
14169;SDS011;63889;50.596;8.690;2023-05-02T03:28:55;22.35;;;10.85;;
14169;SDS011;63889;50.596;8.690;2023-05-02T03:31:21;22.08;;;10.23;;
14169;SDS011;63889;50.596;8.690;2023-05-02T03:33:47;20.95;;;10.63;;
14169;SDS011;63889;50.596;8.690;2023-05-02T03:36:13;16.80;;;10.02;;
14169;SDS011;63889;50.596;8.690;2023-05-02T03:38:39;18.17;;;10.57;;
14169;SDS011;63889;50.596;8.690;2023-05-02T03:41:05;20.95;;;10.07;;
14169;SDS011;63889;50.596;8.690;2023-05-02T03:43:30;22.08;;;10.80;;
14169;SDS011;63889;50.596;8.690;2023-05-02T03:45:56;20.08;;;10.85;;
14169;SDS011;63889;50.596;8.690;2023-05-02T03:48:22;19.42;;;11.48;;
14169;SDS011;63889;50.596;8.690;2023-05-02T03:50:49;21.45;;;10.40;;
14169;SDS011;63889;50.596;8.690;2023-05-02T03:53:14;20.27;;;9.88;;
14169;SDS011;63889;50.596;8.690;2023-05-02T03:55:43;17.60;;;9.85;;
14169;SDS011;63889;50.596;8.690;2023-05-02T03:58:09;17.00;;;9.68;;
14169;SDS011;63889;50.596;8.690;2023-05-02T04:00:35;18.75;;;11.45;;
14169;SDS011;63889;50.596;8.690;2023-05-02T04:03:02;20.80;;;10.75;;
14169;SDS011;63889;50.596;8.690;2023-05-02T04:05:28;19.98;;;11.30;;
14169;SDS011;63889;50.596;8.690;2023-05-02T04:07:56;23.17;;;10.77;;
14169;SDS011;63889;50.596;8.690;2023-05-02T04:10:22;21.38;;;11.40;;
14169;SDS011;63889;50.596;8.690;2023-05-02T04:12:48;19.92;;;11.18;;
14169;SDS011;63889;50.596;8.690;2023-05-02T04:15:13;22.73;;;12.07;;
14169;SDS011;63889;50.596;8.690;2023-05-02T04:17:39;21.42;;;11.57;;
14169;SDS011;63889;50.596;8.690;2023-05-02T04:20:05;20.50;;;11.27;;
14169;SDS011;63889;50.596;8.690;2023-05-02T04:22:31;22.67;;;12.40;;
14169;SDS011;63889;50.596;8.690;2023-05-02T04:24:57;22.88;;;11.68;;
14169;SDS011;63889;50.596;8.690;2023-05-02T04:27:22;20.15;;;11.80;;
14169;SDS011;63889;50.596;8.690;2023-05-02T04:29:48;24.73;;;12.35;;
14169;SDS011;63889;50.596;8.690;2023-05-02T04:32:14;25.38;;;13.02;;
14169;SDS011;63889;50.596;8.690;2023-05-02T04:34:40;24.23;;;12.95;;
14169;SDS011;63889;50.596;8.690;2023-05-02T04:37:06;25.02;;;13.05;;
14169;SDS011;63889;50.596;8.690;2023-05-02T04:39:32;23.33;;;13.30;;
14169;SDS011;63889;50.596;8.690;2023-05-02T04:41:58;24.20;;;13.40;;
14169;SDS011;63889;50.596;8.690;2023-05-02T04:44:24;26.55;;;13.68;;
14169;SDS011;63889;50.596;8.690;2023-05-02T04:46:49;25.00;;;14.10;;
14169;SDS011;63889;50.596;8.690;2023-05-02T04:49:15;26.52;;;14.48;;
14169;SDS011;63889;50.596;8.690;2023-05-02T04:51:41;31.35;;;15.38;;
14169;SDS011;63889;50.596;8.690;2023-05-02T04:54:07;29.02;;;15.07;;
14169;SDS011;63889;50.596;8.690;2023-05-02T04:56:32;33.30;;;16.67;;
14169;SDS011;63889;50.596;8.690;2023-05-02T04:58:58;37.92;;;18.98;;
14169;SDS011;63889;50.596;8.690;2023-05-02T05:01:23;34.50;;;17.63;;
14169;SDS011;63889;50.596;8.690;2023-05-02T05:03:51;33.90;;;16.20;;
14169;SDS011;63889;50.596;8.690;2023-05-02T05:06:17;29.38;;;15.00;;
14169;SDS011;63889;50.596;8.690;2023-05-02T05:08:43;28.33;;;14.55;;
14169;SDS011;63889;50.596;8.690;2023-05-02T05:11:09;26.48;;;15.18;;
14169;SDS011;63889;50.596;8.690;2023-05-02T05:13:35;30.67;;;16.20;;
14169;SDS011;63889;50.596;8.690;2023-05-02T05:16:01;26.38;;;14.73;;
14169;SDS011;63889;50.596;8.690;2023-05-02T05:18:27;28.63;;;14.82;;
14169;SDS011;63889;50.596;8.690;2023-05-02T05:20:53;31.75;;;16.48;;
14169;SDS011;63889;50.596;8.690;2023-05-02T05:23:18;29.05;;;15.75;;
14169;SDS011;63889;50.596;8.690;2023-05-02T05:25:44;34.33;;;17.10;;
14169;SDS011;63889;50.596;8.690;2023-05-02T05:28:09;28.95;;;15.85;;
14169;SDS011;63889;50.596;8.690;2023-05-02T05:30:35;31.60;;;15.82;;
14169;SDS011;63889;50.596;8.690;2023-05-02T05:33:01;26.75;;;14.48;;
14169;SDS011;63889;50.596;8.690;2023-05-02T05:35:26;35.55;;;16.50;;
14169;SDS011;63889;50.596;8.690;2023-05-02T05:37:52;33.20;;;16.70;;
14169;SDS011;63889;50.596;8.690;2023-05-02T05:40:17;31.23;;;16.15;;
14169;SDS011;63889;50.596;8.690;2023-05-02T05:42:44;34.85;;;17.80;;
14169;SDS011;63889;50.596;8.690;2023-05-02T05:45:10;37.05;;;17.45;;
14169;SDS011;63889;50.596;8.690;2023-05-02T05:47:36;37.30;;;18.25;;
14169;SDS011;63889;50.596;8.690;2023-05-02T05:50:01;36.85;;;16.55;;
14169;SDS011;63889;50.596;8.690;2023-05-02T05:52:27;38.63;;;18.42;;
14169;SDS011;63889;50.596;8.690;2023-05-02T05:54:53;31.58;;;16.25;;
14169;SDS011;63889;50.596;8.690;2023-05-02T05:57:22;34.40;;;17.60;;
14169;SDS011;63889;50.596;8.690;2023-05-02T05:59:47;37.90;;;17.80;;
14169;SDS011;63889;50.596;8.690;2023-05-02T06:02:13;34.17;;;16.52;;
14169;SDS011;63889;50.596;8.690;2023-05-02T06:04:40;34.00;;;17.10;;
14169;SDS011;63889;50.596;8.690;2023-05-02T06:07:06;37.00;;;17.75;;
14169;SDS011;63889;50.596;8.690;2023-05-02T06:09:31;34.25;;;17.50;;
14169;SDS011;63889;50.596;8.690;2023-05-02T06:11:57;33.60;;;17.38;;
14169;SDS011;63889;50.596;8.690;2023-05-02T06:14:22;32.92;;;16.58;;
14169;SDS011;63889;50.596;8.690;2023-05-02T06:16:48;34.72;;;16.58;;
14169;SDS011;63889;50.596;8.690;2023-05-02T06:19:14;33.22;;;16.52;;
14169;SDS011;63889;50.596;8.690;2023-05-02T06:21:39;35.88;;;16.13;;
14169;SDS011;63889;50.596;8.690;2023-05-02T06:24:05;32.92;;;16.45;;
14169;SDS011;63889;50.596;8.690;2023-05-02T06:26:31;35.92;;;17.17;;
14169;SDS011;63889;50.596;8.690;2023-05-02T06:28:56;34.83;;;17.15;;
14169;SDS011;63889;50.596;8.690;2023-05-02T06:31:22;30.92;;;16.30;;
14169;SDS011;63889;50.596;8.690;2023-05-02T06:33:47;29.98;;;15.68;;
14169;SDS011;63889;50.596;8.690;2023-05-02T06:36:13;33.17;;;15.18;;
14169;SDS011;63889;50.596;8.690;2023-05-02T06:38:39;30.75;;;14.48;;
14169;SDS011;63889;50.596;8.690;2023-05-02T06:41:04;32.70;;;14.80;;
14169;SDS011;63889;50.596;8.690;2023-05-02T06:43:30;35.15;;;16.40;;
14169;SDS011;63889;50.596;8.690;2023-05-02T06:45:56;30.38;;;15.00;;
14169;SDS011;63889;50.596;8.690;2023-05-02T06:48:22;33.15;;;15.65;;
14169;SDS011;63889;50.596;8.690;2023-05-02T06:50:50;31.10;;;14.38;;
14169;SDS011;63889;50.596;8.690;2023-05-02T06:53:16;26.05;;;14.27;;
14169;SDS011;63889;50.596;8.690;2023-05-02T06:55:43;30.90;;;14.50;;
14169;SDS011;63889;50.596;8.690;2023-05-02T06:58:09;31.33;;;14.85;;
14169;SDS011;63889;50.596;8.690;2023-05-02T07:00:35;26.88;;;13.68;;
14169;SDS011;63889;50.596;8.690;2023-05-02T07:03:00;28.15;;;13.35;;
14169;SDS011;63889;50.596;8.690;2023-05-02T07:05:26;25.27;;;13.45;;
14169;SDS011;63889;50.596;8.690;2023-05-02T07:07:53;26.75;;;12.23;;
14169;SDS011;63889;50.596;8.690;2023-05-02T07:10:18;23.27;;;10.95;;
14169;SDS011;63889;50.596;8.690;2023-05-02T07:12:44;21.15;;;9.95;;
14169;SDS011;63889;50.596;8.690;2023-05-02T07:15:09;18.33;;;9.60;;
14169;SDS011;63889;50.596;8.690;2023-05-02T07:17:35;21.50;;;9.13;;
14169;SDS011;63889;50.596;8.690;2023-05-02T07:20:00;22.50;;;10.48;;
14169;SDS011;63889;50.596;8.690;2023-05-02T07:22:26;23.73;;;10.65;;
14169;SDS011;63889;50.596;8.690;2023-05-02T07:24:56;24.80;;;12.13;;
14169;SDS011;63889;50.596;8.690;2023-05-02T07:27:22;20.53;;;10.80;;
14169;SDS011;63889;50.596;8.690;2023-05-02T07:29:48;21.98;;;11.45;;
14169;SDS011;63889;50.596;8.690;2023-05-02T07:32:13;26.40;;;11.90;;
14169;SDS011;63889;50.596;8.690;2023-05-02T07:34:39;26.17;;;11.85;;
14169;SDS011;63889;50.596;8.690;2023-05-02T07:37:05;24.65;;;11.77;;
14169;SDS011;63889;50.596;8.690;2023-05-02T07:39:31;24.00;;;11.77;;
14169;SDS011;63889;50.596;8.690;2023-05-02T07:41:57;25.70;;;11.95;;
14169;SDS011;63889;50.596;8.690;2023-05-02T07:44:23;25.65;;;12.60;;
14169;SDS011;63889;50.596;8.690;2023-05-02T07:46:48;25.52;;;11.93;;
14169;SDS011;63889;50.596;8.690;2023-05-02T07:49:14;24.00;;;12.10;;
14169;SDS011;63889;50.596;8.690;2023-05-02T07:51:40;26.40;;;12.98;;
14169;SDS011;63889;50.596;8.690;2023-05-02T07:54:16;24.13;;;11.88;;
14169;SDS011;63889;50.596;8.690;2023-05-02T07:56:42;22.88;;;11.23;;
14169;SDS011;63889;50.596;8.690;2023-05-02T07:59:08;27.60;;;12.85;;
14169;SDS011;63889;50.596;8.690;2023-05-02T08:01:34;27.30;;;13.15;;
14169;SDS011;63889;50.596;8.690;2023-05-02T08:04:00;24.77;;;12.05;;
14169;SDS011;63889;50.596;8.690;2023-05-02T08:06:25;23.80;;;12.13;;
14169;SDS011;63889;50.596;8.690;2023-05-02T08:08:52;26.10;;;11.98;;
14169;SDS011;63889;50.596;8.690;2023-05-02T08:11:18;26.45;;;11.60;;
14169;SDS011;63889;50.596;8.690;2023-05-02T08:13:45;25.17;;;12.25;;
14169;SDS011;63889;50.596;8.690;2023-05-02T08:16:11;27.88;;;12.27;;
14169;SDS011;63889;50.596;8.690;2023-05-02T08:18:37;24.50;;;11.55;;
14169;SDS011;63889;50.596;8.690;2023-05-02T08:21:03;25.02;;;11.82;;
14169;SDS011;63889;50.596;8.690;2023-05-02T08:23:29;24.33;;;11.48;;
14169;SDS011;63889;50.596;8.690;2023-05-02T08:25:55;21.88;;;10.70;;
14169;SDS011;63889;50.596;8.690;2023-05-02T08:28:20;19.25;;;11.00;;
14169;SDS011;63889;50.596;8.690;2023-05-02T08:30:46;22.00;;;11.35;;
14169;SDS011;63889;50.596;8.690;2023-05-02T08:33:12;20.88;;;10.43;;
14169;SDS011;63889;50.596;8.690;2023-05-02T08:35:38;25.30;;;11.18;;
14169;SDS011;63889;50.596;8.690;2023-05-02T08:38:04;20.20;;;9.50;;
14169;SDS011;63889;50.596;8.690;2023-05-02T08:40:30;19.63;;;9.90;;
14169;SDS011;63889;50.596;8.690;2023-05-02T08:42:59;17.48;;;9.63;;
14169;SDS011;63889;50.596;8.690;2023-05-02T08:45:26;21.10;;;10.27;;
14169;SDS011;63889;50.596;8.690;2023-05-02T08:48:06;20.52;;;10.40;;
14169;SDS011;63889;50.596;8.690;2023-05-02T08:50:37;21.83;;;8.95;;
14169;SDS011;63889;50.596;8.690;2023-05-02T08:53:04;22.42;;;9.65;;
14169;SDS011;63889;50.596;8.690;2023-05-02T08:55:33;19.50;;;8.90;;
14169;SDS011;63889;50.596;8.690;2023-05-02T08:58:03;18.77;;;9.20;;
14169;SDS011;63889;50.596;8.690;2023-05-02T09:00:30;20.42;;;9.05;;
14169;SDS011;63889;50.596;8.690;2023-05-02T09:05:40;15.75;;;7.55;;
14169;SDS011;63889;50.596;8.690;2023-05-02T09:08:07;14.60;;;7.57;;
14169;SDS011;63889;50.596;8.690;2023-05-02T09:10:33;16.80;;;7.93;;
14169;SDS011;63889;50.596;8.690;2023-05-02T09:15:59;10.15;;;5.75;;
14169;SDS011;63889;50.596;8.690;2023-05-02T09:18:33;9.40;;;5.72;;
14169;SDS011;63889;50.596;8.690;2023-05-02T09:21:02;13.93;;;6.85;;
14169;SDS011;63889;50.596;8.690;2023-05-02T09:23:30;13.02;;;5.13;;
14169;SDS011;63889;50.596;8.690;2023-05-02T09:26:11;14.50;;;5.60;;
14169;SDS011;63889;50.596;8.690;2023-05-02T09:28:37;9.38;;;5.03;;
14169;SDS011;63889;50.596;8.690;2023-05-02T09:31:09;7.15;;;4.10;;
14169;SDS011;63889;50.596;8.690;2023-05-02T09:33:37;6.18;;;2.63;;
14169;SDS011;63889;50.596;8.690;2023-05-02T09:36:03;5.95;;;3.53;;
14169;SDS011;63889;50.596;8.690;2023-05-02T09:38:31;6.07;;;2.80;;
14169;SDS011;63889;50.596;8.690;2023-05-02T09:40:56;7.82;;;2.95;;
14169;SDS011;63889;50.596;8.690;2023-05-02T09:43:23;5.22;;;2.58;;
14169;SDS011;63889;50.596;8.690;2023-05-02T09:45:55;3.53;;;2.13;;
14169;SDS011;63889;50.596;8.690;2023-05-02T09:48:28;3.88;;;2.30;;
14169;SDS011;63889;50.596;8.690;2023-05-02T09:50:54;4.43;;;2.50;;
14169;SDS011;63889;50.596;8.690;2023-05-02T09:53:21;3.03;;;1.95;;
14169;SDS011;63889;50.596;8.690;2023-05-02T09:55:58;4.63;;;2.33;;
14169;SDS011;63889;50.596;8.690;2023-05-02T09:58:25;4.60;;;2.53;;
14169;SDS011;63889;50.596;8.690;2023-05-02T10:00:50;10.32;;;2.53;;
14169;SDS011;63889;50.596;8.690;2023-05-02T10:03:17;6.93;;;3.50;;
14169;SDS011;63889;50.596;8.690;2023-05-02T10:05:43;6.25;;;3.20;;
14169;SDS011;63889;50.596;8.690;2023-05-02T10:08:11;5.07;;;2.30;;
14169;SDS011;63889;50.596;8.690;2023-05-02T10:10:38;4.55;;;2.22;;
14169;SDS011;63889;50.596;8.690;2023-05-02T10:13:07;2.42;;;1.60;;
14169;SDS011;63889;50.596;8.690;2023-05-02T10:15:36;2.33;;;1.35;;
14169;SDS011;63889;50.596;8.690;2023-05-02T10:18:08;3.40;;;1.13;;
14169;SDS011;63889;50.596;8.690;2023-05-02T10:20:39;1.73;;;1.00;;
14169;SDS011;63889;50.596;8.690;2023-05-02T10:23:08;0.90;;;0.70;;
14169;SDS011;63889;50.596;8.690;2023-05-02T10:25:34;0.90;;;0.70;;
14169;SDS011;63889;50.596;8.690;2023-05-02T10:28:00;0.98;;;0.77;;
14169;SDS011;63889;50.596;8.690;2023-05-02T10:30:28;1.42;;;0.60;;
14169;SDS011;63889;50.596;8.690;2023-05-02T10:32:54;0.65;;;0.65;;
14169;SDS011;63889;50.596;8.690;2023-05-02T10:35:24;1.40;;;0.80;;
14169;SDS011;63889;50.596;8.690;2023-05-02T10:37:50;3.35;;;0.60;;
14169;SDS011;63889;50.596;8.690;2023-05-02T10:40:17;2.17;;;0.70;;
14169;SDS011;63889;50.596;8.690;2023-05-02T10:42:45;0.70;;;0.50;;
14169;SDS011;63889;50.596;8.690;2023-05-02T10:45:12;0.65;;;0.50;;
14169;SDS011;63889;50.596;8.690;2023-05-02T10:50:46;3.13;;;0.52;;
14169;SDS011;63889;50.596;8.690;2023-05-02T10:58:46;0.70;;;0.70;;
14169;SDS011;63889;50.596;8.690;2023-05-02T11:03:55;2.25;;;0.80;;
14169;SDS011;63889;50.596;8.690;2023-05-02T11:06:22;0.60;;;0.60;;
14169;SDS011;63889;50.596;8.690;2023-05-02T11:08:48;2.05;;;0.77;;
14169;SDS011;63889;50.596;8.690;2023-05-02T11:14:02;2.15;;;0.93;;
14169;SDS011;63889;50.596;8.690;2023-05-02T11:16:53;2.25;;;1.00;;
14169;SDS011;63889;50.596;8.690;2023-05-02T11:19:26;2.83;;;1.27;;
14169;SDS011;63889;50.596;8.690;2023-05-02T11:21:52;1.38;;;1.10;;
14169;SDS011;63889;50.596;8.690;2023-05-02T11:24:38;1.85;;;1.27;;
14169;SDS011;63889;50.596;8.690;2023-05-02T11:35:15;1.08;;;0.90;;
14169;SDS011;63889;50.596;8.690;2023-05-02T11:38:01;2.13;;;1.20;;
14169;SDS011;63889;50.596;8.690;2023-05-02T11:40:28;2.28;;;1.50;;
14169;SDS011;63889;50.596;8.690;2023-05-02T11:42:55;3.10;;;1.10;;
14169;SDS011;63889;50.596;8.690;2023-05-02T11:45:21;1.85;;;0.65;;
14169;SDS011;63889;50.596;8.690;2023-05-02T11:48:12;0.93;;;0.73;;
14169;SDS011;63889;50.596;8.690;2023-05-02T11:53:14;1.17;;;0.80;;
14169;SDS011;63889;50.596;8.690;2023-05-02T11:55:45;0.60;;;0.60;;
14169;SDS011;63889;50.596;8.690;2023-05-02T11:58:13;1.17;;;0.68;;
14169;SDS011;63889;50.596;8.690;2023-05-02T12:00:43;2.50;;;0.80;;
14169;SDS011;63889;50.596;8.690;2023-05-02T12:03:19;0.55;;;0.55;;
14169;SDS011;63889;50.596;8.690;2023-05-02T12:05:47;3.47;;;0.60;;
14169;SDS011;63889;50.596;8.690;2023-05-02T12:08:17;0.70;;;0.50;;
14169;SDS011;63889;50.596;8.690;2023-05-02T12:10:47;0.90;;;0.80;;
14169;SDS011;63889;50.596;8.690;2023-05-02T12:13:15;0.85;;;0.80;;
14169;SDS011;63889;50.596;8.690;2023-05-02T12:15:41;1.38;;;0.85;;
14169;SDS011;63889;50.596;8.690;2023-05-02T12:18:07;2.25;;;0.80;;
14169;SDS011;63889;50.596;8.690;2023-05-02T12:20:32;1.42;;;0.80;;
14169;SDS011;63889;50.596;8.690;2023-05-02T12:22:58;1.75;;;1.23;;
14169;SDS011;63889;50.596;8.690;2023-05-02T12:25:24;1.58;;;1.33;;
14169;SDS011;63889;50.596;8.690;2023-05-02T12:27:59;1.48;;;1.08;;
14169;SDS011;63889;50.596;8.690;2023-05-02T12:30:26;2.08;;;1.23;;
14169;SDS011;63889;50.596;8.690;2023-05-02T12:32:57;1.63;;;1.35;;
14169;SDS011;63889;50.596;8.690;2023-05-02T12:35:23;1.98;;;1.20;;
14169;SDS011;63889;50.596;8.690;2023-05-02T12:37:49;1.45;;;1.13;;
14169;SDS011;63889;50.596;8.690;2023-05-02T12:40:15;1.67;;;0.98;;
14169;SDS011;63889;50.596;8.690;2023-05-02T12:42:41;1.23;;;0.98;;
14169;SDS011;63889;50.596;8.690;2023-05-02T12:45:16;1.15;;;1.00;;
14169;SDS011;63889;50.596;8.690;2023-05-02T12:47:45;1.60;;;0.95;;
14169;SDS011;63889;50.596;8.690;2023-05-02T12:50:10;1.05;;;0.90;;
14169;SDS011;63889;50.596;8.690;2023-05-02T12:52:46;1.48;;;0.98;;
14169;SDS011;63889;50.596;8.690;2023-05-02T12:55:21;6.38;;;1.13;;
14169;SDS011;63889;50.596;8.690;2023-05-02T12:57:48;0.95;;;0.90;;
14169;SDS011;63889;50.596;8.690;2023-05-02T13:00:19;2.38;;;1.00;;
14169;SDS011;63889;50.596;8.690;2023-05-02T13:02:44;3.70;;;1.38;;
14169;SDS011;63889;50.596;8.690;2023-05-02T13:05:16;2.22;;;0.93;;
14169;SDS011;63889;50.596;8.690;2023-05-02T13:07:42;2.28;;;1.10;;
14169;SDS011;63889;50.596;8.690;2023-05-02T13:10:08;2.03;;;1.02;;
14169;SDS011;63889;50.596;8.690;2023-05-02T13:12:35;1.83;;;1.20;;
14169;SDS011;63889;50.596;8.690;2023-05-02T13:15:05;4.80;;;1.10;;
14169;SDS011;63889;50.596;8.690;2023-05-02T13:17:32;1.13;;;1.02;;
14169;SDS011;63889;50.596;8.690;2023-05-02T13:19:58;1.80;;;1.30;;
14169;SDS011;63889;50.596;8.690;2023-05-02T13:22:23;2.00;;;1.02;;
14169;SDS011;63889;50.596;8.690;2023-05-02T13:24:49;1.23;;;1.02;;
14169;SDS011;63889;50.596;8.690;2023-05-02T13:27:15;2.65;;;1.00;;
14169;SDS011;63889;50.596;8.690;2023-05-02T13:29:42;1.55;;;1.45;;
14169;SDS011;63889;50.596;8.690;2023-05-02T13:32:08;2.10;;;1.48;;
14169;SDS011;63889;50.596;8.690;2023-05-02T13:34:34;3.10;;;1.25;;
14169;SDS011;63889;50.596;8.690;2023-05-02T13:37:00;5.78;;;1.63;;
14169;SDS011;63889;50.596;8.690;2023-05-02T13:39:25;3.28;;;1.20;;
14169;SDS011;63889;50.596;8.690;2023-05-02T13:41:51;1.90;;;1.50;;
14169;SDS011;63889;50.596;8.690;2023-05-02T13:44:16;1.67;;;1.52;;
14169;SDS011;63889;50.596;8.690;2023-05-02T13:46:42;2.20;;;1.60;;
14169;SDS011;63889;50.596;8.690;2023-05-02T13:49:07;1.73;;;1.45;;
14169;SDS011;63889;50.596;8.690;2023-05-02T13:51:33;3.13;;;1.50;;
14169;SDS011;63889;50.596;8.690;2023-05-02T13:53:59;2.20;;;1.60;;
14169;SDS011;63889;50.596;8.690;2023-05-02T13:56:25;2.13;;;1.33;;
14169;SDS011;63889;50.596;8.690;2023-05-02T13:58:50;4.25;;;1.70;;
14169;SDS011;63889;50.596;8.690;2023-05-02T14:01:16;1.25;;;1.15;;
14169;SDS011;63889;50.596;8.690;2023-05-02T14:03:42;2.22;;;1.30;;
14169;SDS011;63889;50.596;8.690;2023-05-02T14:06:08;2.33;;;1.33;;
14169;SDS011;63889;50.596;8.690;2023-05-02T14:08:33;5.13;;;1.95;;
14169;SDS011;63889;50.596;8.690;2023-05-02T14:10:59;4.65;;;1.60;;
14169;SDS011;63889;50.596;8.690;2023-05-02T14:13:25;2.20;;;1.45;;
14169;SDS011;63889;50.596;8.690;2023-05-02T14:15:51;2.08;;;1.13;;
14169;SDS011;63889;50.596;8.690;2023-05-02T14:18:18;1.35;;;1.25;;
14169;SDS011;63889;50.596;8.690;2023-05-02T14:20:44;2.15;;;1.30;;
14169;SDS011;63889;50.596;8.690;2023-05-02T14:23:09;1.25;;;1.15;;
14169;SDS011;63889;50.596;8.690;2023-05-02T14:25:35;1.35;;;1.08;;
14169;SDS011;63889;50.596;8.690;2023-05-02T14:28:01;4.32;;;1.60;;
14169;SDS011;63889;50.596;8.690;2023-05-02T14:30:28;3.60;;;1.52;;
14169;SDS011;63889;50.596;8.690;2023-05-02T14:32:53;2.60;;;1.50;;
14169;SDS011;63889;50.596;8.690;2023-05-02T14:35:19;4.13;;;2.10;;
14169;SDS011;63889;50.596;8.690;2023-05-02T14:37:45;4.88;;;2.10;;
14169;SDS011;63889;50.596;8.690;2023-05-02T14:40:11;5.05;;;2.70;;
14169;SDS011;63889;50.596;8.690;2023-05-02T14:42:38;3.60;;;1.73;;
14169;SDS011;63889;50.596;8.690;2023-05-02T14:45:04;2.17;;;1.70;;
14169;SDS011;63889;50.596;8.690;2023-05-02T14:47:30;3.55;;;1.90;;
14169;SDS011;63889;50.596;8.690;2023-05-02T14:49:56;3.00;;;2.20;;
14169;SDS011;63889;50.596;8.690;2023-05-02T14:52:21;2.63;;;2.10;;
14169;SDS011;63889;50.596;8.690;2023-05-02T14:54:47;3.88;;;2.25;;
14169;SDS011;63889;50.596;8.690;2023-05-02T14:57:12;4.05;;;2.28;;
14169;SDS011;63889;50.596;8.690;2023-05-02T14:59:39;4.78;;;2.35;;
14169;SDS011;63889;50.596;8.690;2023-05-02T15:02:05;4.43;;;2.00;;
14169;SDS011;63889;50.596;8.690;2023-05-02T15:04:31;2.50;;;1.80;;
14169;SDS011;63889;50.596;8.690;2023-05-02T15:06:58;2.55;;;1.92;;
14169;SDS011;63889;50.596;8.690;2023-05-02T15:09:24;2.42;;;2.10;;
14169;SDS011;63889;50.596;8.690;2023-05-02T15:11:51;2.60;;;2.00;;
14169;SDS011;63889;50.596;8.690;2023-05-02T15:14:17;2.22;;;1.80;;
14169;SDS011;63889;50.596;8.690;2023-05-02T15:16:42;4.53;;;1.92;;
14169;SDS011;63889;50.596;8.690;2023-05-02T15:19:08;3.38;;;2.20;;
14169;SDS011;63889;50.596;8.690;2023-05-02T15:21:33;2.72;;;1.75;;
14169;SDS011;63889;50.596;8.690;2023-05-02T15:23:59;3.08;;;2.00;;
14169;SDS011;63889;50.596;8.690;2023-05-02T15:26:25;3.30;;;1.85;;
14169;SDS011;63889;50.596;8.690;2023-05-02T15:28:51;2.25;;;1.80;;